If you wish to contribute or participate in the discussions about articles you are invited to join SKYbrary as a registered user

 Actions

Volgograd International Airport

From SKYbrary Wiki

URWW
Airport
ICAO: URWW – IATA: VOG
Summary
Name Volgograd International Airport
Region Europe
Territory Russian Federation RU.gif
Location Gumrak, Volgograd Oblast
Serving Volgograd
Elevation 146.914 m
482 ft146.914 m
Coordinates 48° 46' 54.01" N, 44° 20' 48.01" E
Runways
Designator Length Width Surface ROPS
8/26 486 m1,594.488 ft
107 m351.05 ft
GRS /
11/29 2469 m8,100.394 ft
49 m160.761 ft
ASP yes/yes
11R/29L 1699 m5,574.147 ft
101 m331.365 ft
GRS /


METAR
Observation URWW 171600Z 15004MPS CAVOK M02/M03 Q1034 R06/110065 TEMPO 0300 -FZDZ FZFG OVC002
Station Volgograd
Date/Time 17 February 2020 16:00:00
Wind direction 150°
Wind speed kts
Lowest cloud amount overcast
Temperature
Dew point
Humidity 92%
QNH 1034 hPa
Weather condition n/a

Volgograd International Airport is an airport located Distance:15 km northwest of the city of Volgograd, formerly Stalingrad, in Russia.

Climatology

Hot summer humid continental climate (Köppen climate classification Aw)

Maps

Terrain

Loading map...

Airport Layout

Loading map...


Accidents & Serious Incidents at or in vicinity of URWW

None on SKYbrary